首页
METAR-TAF:

METAR-TAF

机场 :

勒阿弗尔, 法国

纬度: 49-31N, 经度: 000-04E, 海拔: 100米

当前天气观测

该预报发布于24分钟前的19:00 UTC
风速17节,风向西南
温度 9°C
湿度 76%
气压 1022 hPa
能见度10公里或以上
多云层高于3200英尺
多云层高于4200英尺
阴天层高于5200英尺

METAR: LFOH 181900Z AUTO 23017KT 9999 BKN032 BKN042 OVC052 09/05 Q1022 TEMPO 25025G40KT 3000 SHRA BKN013 BKN025CB

时间: 20:24 (19:24 UTC)

预报

该预报发布于8小时和24分钟前的11:00 UTC
预报有效从18日的 12点(UTC)到 19日的 12点(UTC)
风速15节,风向西南
能见度10公里或以上
多云层高于2500英尺
短暂存在
从 18日的 12点(UTC)到 18日的 17点(UTC)
风速18节,风向西南,有时为28节阵风
短暂存在
从 18日的 17点(UTC)到 19日的 01点(UTC)
风速25节,风向西转西南,有时为40节阵风
能見度: 3000
多云层高于1300英尺
多云层高于2500英尺, 积雨云.
阵雨
从 19日的 0100点(UTC)
风速16节,风向西转西北
能见度10公里或以上
多云层高于3000英尺

TAF: LFOH 181100Z 1812/1912 23015KT 9999 BKN025 TEMPO 1812/1817 23018G28KT TEMPO 1817/1901 25025G40KT 3000 SHRA BKN013 BKN025CB FM190100 29016KT 9999 BKN030

超过4000个机场的气象观测和天气预报(METAR&TAF报告)。

可查询的气象台以黄色和红色小点在地图上表示。

将鼠标移到小点上方,可查看气象台名称。

然后点击查看天气观测和预报。

如需切换地图:点击带黑十字的绿色按钮放大地图;点击带横线的绿色按钮缩小地图;或者点击绿色箭头查看邻近地区的地图。


METAR-TAF: